Time;durP1;ratioP1;P1;durP2;ratioP2;P2;SDS_P1;SDS_P2;PMS_P1;PMS_P2;Temp;Humidity;BMP_temperature;BMP_pressure;BME280_temperature;BME280_humidity;BME280_pressure;Samples;Min_cycle;Max_cycle;Signal;HPM_P1;HPM_P2
2022/07/24 00:01:34;;;;;;;15.52;9.85;;;;;;;18.72;71.51;95128.13;5002073;28;20053;-74
2022/07/24 00:04:06;;;;;;;21.13;9.18;;;;;;;18.61;71.65;95123.97;5006765;28;20582;-73
2022/07/24 00:06:33;;;;;;;18.40;9.98;;;;;;;18.53;72.06;95126.13;5003246;28;20046;-74
2022/07/24 00:09:00;;;;;;;25.52;9.73;;;;;;;18.50;72.89;95123.25;5003563;28;20042;-73
2022/07/24 00:11:28;;;;;;;19.95;9.50;;;;;;;18.44;72.74;95132.25;5001270;28;20042;-73
2022/07/24 00:13:55;;;;;;;14.55;8.90;;;;;;;18.36;73.40;95128.34;5005162;28;20601;-73
2022/07/24 00:16:22;;;;;;;16.52;10.18;;;;;;;18.30;73.48;95129.44;5006774;28;20046;-74
2022/07/24 00:18:49;;;;;;;16.80;8.95;;;;;;;18.24;73.18;95131.31;5013725;28;20419;-73
2022/07/24 00:21:16;;;;;;;18.05;9.88;;;;;;;18.19;73.43;95120.03;5013419;28;20038;-73
2022/07/24 00:23:43;;;;;;;22.20;9.80;;;;;;;18.23;73.36;95121.03;5010552;28;20140;-73
2022/07/24 00:26:12;;;;;;;14.30;9.43;;;;;;;18.17;73.37;95114.22;5010850;28;20037;-73
2022/07/24 00:28:39;;;;;;;17.52;9.68;;;;;;;18.27;73.13;95124.72;5007393;28;20049;-73
2022/07/24 00:31:06;;;;;;;15.27;9.75;;;;;;;18.30;73.01;95124.16;5009014;28;20045;-73
2022/07/24 00:33:33;;;;;;;17.88;9.23;;;;;;;18.31;73.16;95126.53;5013332;28;20045;-73
2022/07/24 00:36:00;;;;;;;21.30;8.85;;;;;;;18.34;73.17;95119.94;5015237;28;20055;-74
2022/07/24 00:38:27;;;;;;;17.88;8.38;;;;;;;18.28;72.99;95118.38;5008654;28;20045;-73
2022/07/24 00:40:54;;;;;;;17.58;9.35;;;;;;;18.37;72.76;95122.03;5008597;28;20465;-73
2022/07/24 00:43:21;;;;;;;20.15;8.60;;;;;;;18.43;72.82;95134.09;5008986;28;20091;-73
2022/07/24 00:45:48;;;;;;;12.18;8.68;;;;;;;18.44;72.07;95130.41;5010090;28;20069;-73
2022/07/24 00:48:16;;;;;;;12.50;8.73;;;;;;;18.52;72.37;95121.91;4994768;28;20132;-74
2022/07/24 00:50:43;;;;;;;15.70;7.93;;;;;;;18.45;71.78;95105.59;5013333;28;20237;-73
2022/07/24 00:53:11;;;;;;;21.52;9.38;;;;;;;18.47;71.71;95124.59;5014747;28;20046;-73
2022/07/24 00:55:38;;;;;;;15.80;8.75;;;;;;;18.50;71.65;95123.25;5012916;28;20050;-73
2022/07/24 00:58:05;;;;;;;21.73;9.73;;;;;;;18.34;71.81;95114.66;5015852;28;20037;-73
2022/07/24 01:00:32;;;;;;;19.00;8.43;;;;;;;18.30;72.54;95119.69;5014489;28;20572;-73
2022/07/24 01:02:59;;;;;;;10.90;8.95;;;;;;;18.27;72.22;95119.44;5013325;28;20515;-73
2022/07/24 01:05:26;;;;;;;18.90;9.73;;;;;;;18.30;72.88;95124.16;4984936;28;20530;-73
2022/07/24 01:07:53;;;;;;;13.85;8.68;;;;;;;18.26;72.97;95118.66;4986774;28;20527;-73
2022/07/24 01:10:20;;;;;;;15.68;8.45;;;;;;;18.25;73.64;95121.56;4979230;28;20065;-74
2022/07/24 01:12:47;;;;;;;14.98;9.45;;;;;;;18.21;74.74;95121.31;4989019;28;20534;-73
2022/07/24 01:15:14;;;;;;;15.15;8.48;;;;;;;18.07;74.61;95126.38;4984035;28;20673;-73
2022/07/24 01:17:42;;;;;;;20.95;10.48;;;;;;;18.14;75.20;95124.25;4983617;28;20050;-73
2022/07/24 01:20:10;;;;;;;23.63;9.18;;;;;;;18.01;75.32;95106.38;4984553;28;20042;-73
2022/07/24 01:22:37;;;;;;;20.45;9.13;;;;;;;18.05;75.21;95115.31;4980850;28;20074;-73
2022/07/24 01:25:04;;;;;;;16.45;8.90;;;;;;;18.02;75.71;95113.22;4982557;28;20546;-73
2022/07/24 01:27:31;;;;;;;14.18;8.23;;;;;;;17.93;75.69;95109.56;4981342;28;20057;-73
2022/07/24 01:29:58;;;;;;;17.10;9.02;;;;;;;17.98;75.22;95112.19;4982624;28;20053;-73
2022/07/24 01:32:25;;;;;;;14.10;8.05;;;;;;;17.95;74.96;95110.09;4987573;28;20069;-73
2022/07/24 01:34:52;;;;;;;16.17;8.63;;;;;;;17.87;74.98;95089.59;4982070;28;20045;-73
2022/07/24 01:37:18;;;;;;;13.68;8.45;;;;;;;18.01;76.00;95111.66;4987299;28;20049;-73
2022/07/24 01:39:45;;;;;;;20.08;9.77;;;;;;;17.95;76.03;95107.44;4983550;28;21238;-73
2022/07/24 01:42:12;;;;;;;16.92;8.27;;;;;;;17.91;76.69;95104.56;4978577;28;20080;-73
2022/07/24 01:44:39;;;;;;;17.50;9.43;;;;;;;17.83;76.62;95099.06;4979419;28;20121;-74
2022/07/24 01:47:06;;;;;;;16.33;7.57;;;;;;;17.78;76.53;95100.66;4979690;28;20050;-73
2022/07/24 01:49:33;;;;;;;23.70;8.40;;;;;;;17.69;76.47;95094.34;4978736;28;20050;-73
2022/07/24 01:52:00;;;;;;;17.17;8.48;;;;;;;17.68;76.59;95097.25;4972531;28;20533;-74
2022/07/24 01:54:27;;;;;;;21.85;9.05;;;;;;;17.60;76.70;95085.44;4980912;28;20065;-73
2022/07/24 01:56:54;;;;;;;14.95;7.13;;;;;;;17.70;76.95;95101.22;4983298;28;21180;-74
2022/07/24 01:59:21;;;;;;;11.57;8.15;;;;;;;17.62;76.82;95088.59;4986042;28;20622;-73
2022/07/24 02:01:52;;;;;;;13.95;7.60;;;;;;;17.64;76.41;95094.38;4978833;28;20062;-73
2022/07/24 02:04:20;;;;;;;15.80;8.52;;;;;;;17.55;76.44;95090.72;5005669;28;20587;-74
2022/07/24 02:06:47;;;;;;;21.80;9.20;;;;;;;17.47;77.22;95096.56;5032231;28;20087;-73
2022/07/24 02:09:14;;;;;;;12.45;8.95;;;;;;;17.36;77.89;95091.31;5030045;28;20538;-73
2022/07/24 02:11:41;;;;;;;15.02;8.70;;;;;;;17.31;78.41;95093.94;5025706;28;20064;-73
2022/07/24 02:14:08;;;;;;;16.13;8.25;;;;;;;17.32;78.40;95100.78;5029179;28;20826;-74
2022/07/24 02:16:35;;;;;;;13.57;7.70;;;;;;;17.32;78.53;95098.16;5029193;28;20051;-73
2022/07/24 02:19:02;;;;;;;22.05;8.35;;;;;;;17.30;78.01;95100.25;5015333;28;20037;-73
2022/07/24 02:21:30;;;;;;;19.30;9.38;;;;;;;17.30;78.15;95092.34;5007766;28;20052;-73
2022/07/24 02:23:57;;;;;;;18.35;8.52;;;;;;;17.36;78.10;95091.31;5008813;28;20041;-73
2022/07/24 02:26:23;;;;;;;14.13;8.95;;;;;;;17.39;78.21;95074.97;5026557;28;20033;-74
2022/07/24 02:28:50;;;;;;;22.08;8.50;;;;;;;17.43;78.24;95077.06;5027090;28;20041;-73
2022/07/24 02:31:17;;;;;;;17.20;8.60;;;;;;;17.31;78.37;95077.38;5032021;28;20044;-73
2022/07/24 02:33:44;;;;;;;10.80;8.13;;;;;;;17.35;79.25;95068.66;5026582;28;20061;-73
2022/07/24 02:36:11;;;;;;;17.95;9.20;;;;;;;17.24;79.23;95061.84;5030425;28;20045;-73
2022/07/24 02:38:38;;;;;;;24.67;9.52;;;;;;;17.27;79.21;95077.09;5026133;28;20289;-74
2022/07/24 02:41:05;;;;;;;12.40;8.45;;;;;;;17.29;78.37;95074.22;5029816;28;20040;-74
2022/07/24 02:43:32;;;;;;;13.65;8.15;;;;;;;17.27;78.24;95082.38;5013822;28;21499;-73
2022/07/24 02:45:59;;;;;;;16.08;8.10;;;;;;;17.26;78.58;95080.78;5010842;28;20052;-73
2022/07/24 02:48:26;;;;;;;15.38;8.10;;;;;;;17.21;78.60;95078.16;5034198;28;20099;-73
2022/07/24 02:50:52;;;;;;;17.75;9.63;;;;;;;17.13;78.25;95081.34;5031185;28;20677;-73
2022/07/24 02:53:19;;;;;;;19.63;9.80;;;;;;;17.13;78.78;95081.34;5032699;28;20041;-73
2022/07/24 02:55:46;;;;;;;14.27;7.90;;;;;;;17.12;79.08;95082.38;5037364;28;20059;-73
2022/07/24 02:58:13;;;;;;;16.40;8.38;;;;;;;17.12;79.62;95085.03;5027451;28;20053;-73
2022/07/24 03:00:40;;;;;;;18.40;9.40;;;;;;;17.13;79.15;95083.97;5024187;28;20052;-74
2022/07/24 03:03:07;;;;;;;25.00;8.02;;;;;;;17.08;80.20;95089.25;5028178;28;20036;-73
2022/07/24 03:05:34;;;;;;;22.83;9.75;;;;;;;17.03;80.47;95091.88;5036916;28;20052;-74
2022/07/24 03:08:01;;;;;;;13.88;8.45;;;;;;;17.03;79.92;95081.34;5031929;28;20301;-74
2022/07/24 03:10:28;;;;;;;19.95;8.98;;;;;;;17.05;79.91;95092.41;5028281;28;20037;-73
2022/07/24 03:12:55;;;;;;;18.65;8.98;;;;;;;17.03;79.35;95092.66;5007880;28;20552;-73
2022/07/24 03:15:21;;;;;;;17.33;8.65;;;;;;;16.99;79.92;95087.13;5035049;28;20056;-73
2022/07/24 03:17:53;;;;;;;15.88;9.27;;;;;;;16.90;80.59;95099.25;5029466;28;20049;-73
2022/07/24 03:20:25;;;;;;;18.13;9.18;;;;;;;16.73;81.84;95093.44;5025805;28;20529;-73
2022/07/24 03:22:52;;;;;;;13.30;8.25;;;;;;;16.67;81.88;95099.75;5009887;28;20594;-73
2022/07/24 03:25:20;;;;;;;16.55;9.10;;;;;;;16.58;83.13;95102.91;5005595;28;20044;-73
2022/07/24 03:27:48;;;;;;;13.95;9.77;;;;;;;16.56;82.94;95089.22;5003847;28;20532;-74
2022/07/24 03:30:16;;;;;;;17.38;8.55;;;;;;;16.63;82.92;95097.63;5026319;28;20443;-73
2022/07/24 03:32:44;;;;;;;21.70;9.05;;;;;;;16.61;84.62;95097.09;5024554;28;20049;-73
2022/07/24 03:35:11;;;;;;;11.68;8.98;;;;;;;16.56;86.77;95088.44;5027787;28;20033;-73
2022/07/24 03:37:38;;;;;;;16.05;9.98;;;;;;;16.61;87.74;95085.81;5021769;28;20167;-73
2022/07/24 03:40:06;;;;;;;16.52;9.10;;;;;;;16.72;87.61;95103.16;5009841;28;20489;-73
2022/07/24 03:42:33;;;;;;;15.30;8.70;;;;;;;16.75;87.54;95097.38;5007470;28;20053;-73
2022/07/24 03:45:00;;;;;;;25.58;9.02;;;;;;;16.78;87.50;95096.88;5027962;28;20538;-73
2022/07/24 03:47:27;;;;;;;13.77;9.20;;;;;;;16.91;87.34;95106.09;5005971;28;20102;-73
2022/07/24 03:49:54;;;;;;;16.83;9.55;;;;;;;17.02;86.53;95103.47;5023694;28;20049;-74
2022/07/24 03:52:22;;;;;;;13.90;8.73;;;;;;;17.13;86.53;95107.66;5026601;28;20633;-73
2022/07/24 03:54:50;;;;;;;21.75;10.23;;;;;;;17.19;85.38;95096.06;5026503;28;20042;-73
2022/07/24 03:57:17;;;;;;;14.25;8.65;;;;;;;17.38;84.81;95104.97;5020095;28;20112;-73
2022/07/24 03:59:45;;;;;;;25.92;8.85;;;;;;;17.47;84.52;95097.34;5006335;28;20044;-73
2022/07/24 04:02:13;;;;;;;20.65;9.35;;;;;;;17.47;83.52;95080.75;5024066;28;20407;-73
2022/07/24 04:04:40;;;;;;;17.38;9.63;;;;;;;17.61;83.38;95108.09;5031536;28;20046;-73
2022/07/24 04:07:07;;;;;;;18.17;9.23;;;;;;;17.66;83.41;95105.44;5004024;28;20041;-73
2022/07/24 04:09:34;;;;;;;16.90;9.30;;;;;;;17.81;83.02;95116.97;5030763;28;20222;-73
2022/07/24 04:12:02;;;;;;;19.35;10.68;;;;;;;17.93;82.67;95115.66;5027303;28;20053;-73
2022/07/24 04:14:29;;;;;;;32.58;10.45;;;;;;;18.06;82.26;95113.47;5023497;28;20037;-74
2022/07/24 04:16:56;;;;;;;17.48;8.98;;;;;;;18.17;82.10;95114.22;5026342;28;20045;-73
2022/07/24 04:19:23;;;;;;;21.23;10.40;;;;;;;18.20;81.67;95103.13;5008625;28;20495;-73
2022/07/24 04:21:49;;;;;;;21.85;9.90;;;;;;;18.35;80.87;95095.16;5032523;28;20049;-73
2022/07/24 04:24:16;;;;;;;18.73;9.85;;;;;;;18.43;80.89;95097.19;5012177;28;20048;-74
2022/07/24 04:26:43;;;;;;;19.38;10.65;;;;;;;18.53;81.58;95104.25;5034743;28;20042;-74
2022/07/24 04:29:10;;;;;;;16.65;9.82;;;;;;;18.58;81.25;95108.69;5015685;28;20049;-73
2022/07/24 04:31:37;;;;;;;19.77;9.98;;;;;;;18.58;81.10;95104.19;5033668;28;20500;-74
2022/07/24 04:34:04;;;;;;;22.30;9.23;;;;;;;18.73;80.63;95105.97;5031276;28;20517;-73
2022/07/24 04:36:31;;;;;;;18.92;9.30;;;;;;;18.78;79.78;95098.00;5013382;28;20052;-74
2022/07/24 04:38:59;;;;;;;18.95;9.10;;;;;;;18.94;79.52;95105.81;5010755;28;20655;-73
2022/07/24 04:41:34;;;;;;;14.40;8.75;;;;;;;19.04;78.66;95105.75;5013259;28;20060;-74
2022/07/24 04:44:01;;;;;;;26.30;9.95;;;;;;;19.15;77.67;95101.94;5032147;28;20338;-73
2022/07/24 04:46:28;;;;;;;17.80;9.70;;;;;;;19.32;75.83;95106.00;5012331;28;20056;-73
2022/07/24 04:48:55;;;;;;;17.00;10.02;;;;;;;19.33;74.97;95081.19;5028947;28;20037;-74
2022/07/24 04:51:22;;;;;;;18.17;9.73;;;;;;;19.56;75.49;95106.81;5030693;28;20584;-74
2022/07/24 04:53:52;;;;;;;24.92;10.43;;;;;;;19.74;75.08;95101.91;5010714;28;20064;-74
2022/07/24 04:56:20;;;;;;;15.20;9.68;;;;;;;19.92;73.36;95103.81;5025441;28;20052;-74
2022/07/24 04:58:48;;;;;;;16.63;10.30;;;;;;;20.09;72.74;95118.41;5031175;28;20119;-74
2022/07/24 05:01:15;;;;;;;16.90;9.48;;;;;;;20.22;73.31;95123.00;5032178;28;20041;-74
2022/07/24 05:03:42;;;;;;;23.10;10.85;;;;;;;20.40;72.50;95130.16;5034387;28;20197;-73
2022/07/24 05:06:09;;;;;;;19.15;11.98;;;;;;;20.44;71.51;95115.28;5033048;28;20048;-72
2022/07/24 05:08:37;;;;;;;20.15;9.52;;;;;;;20.61;71.05;95130.69;5031846;28;20037;-73
2022/07/24 05:11:04;;;;;;;17.05;10.32;;;;;;;20.68;70.67;95129.56;5028554;28;20526;-73
2022/07/24 05:13:31;;;;;;;18.98;10.18;;;;;;;20.75;69.48;95133.41;5034356;28;20053;-73
2022/07/24 05:15:58;;;;;;;18.73;9.15;;;;;;;20.90;68.35;95134.25;5033323;28;20043;-73
2022/07/24 05:18:25;;;;;;;19.10;9.57;;;;;;;20.95;66.13;95123.56;5013176;28;20397;-74
2022/07/24 05:20:52;;;;;;;16.83;9.20;;;;;;;21.07;66.16;95131.84;5033341;28;20522;-73
2022/07/24 05:23:19;;;;;;;21.98;10.75;;;;;;;21.20;67.57;95128.44;5014746;28;20043;-73
2022/07/24 05:25:46;;;;;;;20.85;10.50;;;;;;;21.36;67.00;95122.91;5009123;28;20033;-73
2022/07/24 05:28:15;;;;;;;55.08;21.58;;;;;;;21.45;66.92;95130.97;5030318;28;20051;-73
2022/07/24 05:30:42;;;;;;;33.67;15.50;;;;;;;21.58;66.96;95131.00;5030251;28;20145;-73
2022/07/24 05:33:09;;;;;;;19.60;10.35;;;;;;;21.75;64.59;95134.94;5010444;28;20184;-73
2022/07/24 05:35:36;;;;;;;17.17;10.57;;;;;;;21.83;62.74;95136.91;5026746;28;20046;-73
2022/07/24 05:38:03;;;;;;;15.10;8.75;;;;;;;21.98;60.60;95132.38;5029257;28;20041;-73
2022/07/24 05:40:30;;;;;;;20.88;11.35;;;;;;;22.08;60.00;95116.28;5023160;28;21449;-73
2022/07/24 05:42:57;;;;;;;23.73;9.77;;;;;;;22.20;60.70;95119.22;5028033;28;20079;-73
2022/07/24 05:45:24;;;;;;;19.23;9.25;;;;;;;22.41;59.48;95118.78;5026096;28;20037;-73
2022/07/24 05:47:51;;;;;;;21.90;8.77;;;;;;;22.56;58.64;95121.09;5012595;28;20055;-73
2022/07/24 05:50:18;;;;;;;15.85;9.05;;;;;;;22.74;55.55;95123.91;5009613;28;20045;-73
2022/07/24 05:52:44;;;;;;;15.98;8.95;;;;;;;22.85;53.48;95128.69;5028130;28;20620;-73
2022/07/24 05:55:11;;;;;;;18.80;8.93;;;;;;;22.87;57.25;95125.72;5013536;28;20045;-73
2022/07/24 05:57:42;;;;;;;21.70;9.25;;;;;;;22.98;57.66;95124.41;5022734;28;20041;-73
2022/07/24 06:00:10;;;;;;;16.83;10.18;;;;;;;23.06;58.02;95121.03;5014097;28;20033;-73
2022/07/24 06:02:43;;;;;;;18.65;9.23;;;;;;;23.18;55.72;95133.00;5009318;28;20053;-74
2022/07/24 06:05:09;;;;;;;18.65;9.18;;;;;;;23.22;54.92;95136.59;5025248;28;20092;-73
2022/07/24 06:07:36;;;;;;;20.55;9.70;;;;;;;23.14;56.64;95129.34;5008826;28;20053;-73
2022/07/24 06:10:04;;;;;;;23.20;9.77;;;;;;;23.15;58.14;95130.94;5009292;28;20506;-73
2022/07/24 06:12:33;;;;;;;18.98;9.43;;;;;;;23.31;55.69;95129.47;5022974;28;20207;-73
2022/07/24 06:15:00;;;;;;;18.92;9.07;;;;;;;23.21;55.06;95119.88;5013227;28;20042;-73
2022/07/24 06:17:27;;;;;;;17.40;9.60;;;;;;;23.33;54.35;95121.19;5020914;28;20042;-73
2022/07/24 06:19:54;;;;;;;15.90;9.10;;;;;;;23.43;53.32;95120.94;4994442;28;20107;-73
2022/07/24 06:22:21;;;;;;;14.63;8.40;;;;;;;23.60;52.98;95120.22;5024741;28;20041;-73
2022/07/24 06:24:56;;;;;;;19.20;9.27;;;;;;;23.76;50.87;95128.59;5024857;28;20043;-74
2022/07/24 06:27:23;;;;;;;18.92;8.15;;;;;;;23.84;51.33;95126.00;5024065;28;20127;-73
2022/07/24 06:29:50;;;;;;;17.42;9.45;;;;;;;23.82;52.75;95117.53;5021471;28;20562;-73
2022/07/24 06:32:17;;;;;;;18.10;9.35;;;;;;;23.91;52.06;95119.44;5006570;28;20569;-73
2022/07/24 06:34:44;;;;;;;19.20;9.30;;;;;;;23.96;53.08;95100.66;5006449;28;20144;-73
2022/07/24 06:37:11;;;;;;;18.55;9.23;;;;;;;24.17;51.33;95112.28;5009328;28;20045;-74
2022/07/24 06:39:38;;;;;;;16.38;8.65;;;;;;;24.36;51.24;95120.00;5009452;28;20048;-75
2022/07/24 06:42:06;;;;;;;28.88;10.18;;;;;;;24.51;52.72;95105.44;5026678;28;20037;-75
2022/07/24 06:44:36;;;;;;;23.83;9.73;;;;;;;24.76;50.40;95116.44;5013436;28;20048;-75
2022/07/24 06:47:03;;;;;;;18.13;10.00;;;;;;;24.82;51.46;95112.53;5032321;28;20062;-71
2022/07/24 06:49:30;;;;;;;18.70;9.82;;;;;;;25.02;49.36;95110.31;5028308;28;20040;-71
2022/07/24 06:51:57;;;;;;;19.50;9.45;;;;;;;25.06;50.09;95108.56;5009876;28;20068;-71
2022/07/24 06:54:23;;;;;;;17.58;8.93;;;;;;;25.16;50.69;95097.59;5013295;28;20054;-72
2022/07/24 06:56:50;;;;;;;15.82;9.52;;;;;;;25.29;47.91;95109.97;5029345;28;20068;-71
2022/07/24 06:59:18;;;;;;;18.17;9.02;;;;;;;25.29;47.81;95101.97;5008149;28;20049;-72
2022/07/24 07:01:45;;;;;;;18.15;9.77;;;;;;;25.47;48.64;95096.59;5026468;28;20432;-72
2022/07/24 07:04:12;;;;;;;17.38;10.65;;;;;;;25.73;47.60;95099.94;5010124;28;20393;-72
2022/07/24 07:06:39;;;;;;;16.55;9.93;;;;;;;26.05;45.96;95111.09;5026353;28;20076;-71
2022/07/24 07:09:11;;;;;;;23.48;9.88;;;;;;;26.17;45.92;95102.41;5009022;28;20052;-70
2022/07/24 07:11:38;;;;;;;27.52;9.43;;;;;;;26.43;45.34;95110.22;5022417;28;20045;-70
2022/07/24 07:14:07;;;;;;;25.73;9.35;;;;;;;26.60;44.59;95103.97;5010521;28;20047;-70
2022/07/24 07:16:38;;;;;;;23.88;9.75;;;;;;;26.86;45.09;95105.69;4982942;28;20040;-70
2022/07/24 07:19:05;;;;;;;17.50;10.80;;;;;;;26.95;43.07;95094.91;5023571;28;20813;-70
2022/07/24 07:21:33;;;;;;;17.05;10.02;;;;;;;27.18;43.47;95098.75;5023715;28;20057;-71
2022/07/24 07:24:00;;;;;;;21.63;9.25;;;;;;;27.43;41.95;95096.19;5022755;28;20047;-70
2022/07/24 07:26:27;;;;;;;14.35;7.68;;;;;;;27.67;41.08;95100.00;5025269;28;20049;-70
2022/07/24 07:28:54;;;;;;;12.48;8.43;;;;;;;27.67;41.58;95094.63;5026447;28;20045;-70
2022/07/24 07:31:21;;;;;;;18.17;9.23;;;;;;;27.68;41.96;95101.53;5010402;28;20542;-70
2022/07/24 07:33:49;;;;;;;19.48;9.70;;;;;;;27.73;42.12;95093.28;5026867;28;20095;-70
2022/07/24 07:36:16;;;;;;;18.85;9.80;;;;;;;27.93;42.49;95097.00;5010365;28;20068;-73
2022/07/24 07:38:43;;;;;;;20.35;9.80;;;;;;;27.96;42.09;95086.41;5004834;28;20526;-70
2022/07/24 07:41:09;;;;;;;23.25;9.77;;;;;;;28.09;41.13;95089.06;5024399;28;20049;-70
2022/07/24 07:43:36;;;;;;;16.35;8.20;;;;;;;28.13;40.22;95085.41;5030184;28;20029;-73
2022/07/24 07:46:04;;;;;;;21.70;8.38;;;;;;;28.53;38.57;95091.91;5027326;28;20594;-71
2022/07/24 07:48:32;;;;;;;19.90;7.93;;;;;;;28.70;34.66;95099.69;5023950;28;20084;-71
2022/07/24 07:50:59;;;;;;;15.40;7.70;;;;;;;28.79;36.34;95097.66;5027843;28;20117;-71
2022/07/24 07:53:26;;;;;;;17.85;8.65;;;;;;;28.43;36.27;95093.13;5025968;28;20072;-71
2022/07/24 07:55:53;;;;;;;14.63;8.15;;;;;;;28.59;36.00;95099.41;5026444;28;21019;-71
2022/07/24 07:58:20;;;;;;;14.15;8.52;;;;;;;28.53;35.70;95054.41;5023371;28;20041;-73
2022/07/24 08:00:47;;;;;;;15.15;7.72;;;;;;;28.99;35.70;95097.78;5033415;28;20042;-73
2022/07/24 08:03:15;;;;;;;22.92;8.88;;;;;;;29.19;36.07;95089.88;5030497;28;20117;-67
2022/07/24 08:05:49;;;;;;;;;;;;;;;29.35;35.59;95096.03;5030643;28;20428;-66
2022/07/24 08:08:24;;;;;;;21.00;9.35;;;;;;;29.55;35.84;95096.94;5030133;28;19921;-65
2022/07/24 08:10:50;;;;;;;14.48;7.75;;;;;;;29.65;34.02;95106.38;5031460;28;20046;-70
2022/07/24 08:13:19;;;;;;;13.38;8.18;;;;;;;29.74;31.97;95101.59;5011248;28;20080;-72
2022/07/24 08:15:46;;;;;;;20.35;9.60;;;;;;;30.04;32.36;95106.56;5025985;28;20041;-72
2022/07/24 08:18:13;;;;;;;14.57;8.15;;;;;;;30.30;32.28;95098.66;5026740;28;20096;-73
2022/07/24 08:20:42;;;;;;;13.48;6.95;;;;;;;30.62;32.01;95109.34;5008731;28;20053;-72
2022/07/24 08:23:09;;;;;;;14.52;8.43;;;;;;;30.80;31.61;95108.94;5023499;28;20536;-73
2022/07/24 08:25:36;;;;;;;17.10;7.63;;;;;;;31.02;32.92;95100.16;5008047;28;20048;-73
2022/07/24 08:28:04;;;;;;;15.68;7.85;;;;;;;31.39;32.75;95107.75;5010247;28;20037;-73
2022/07/24 08:30:31;;;;;;;14.70;9.18;;;;;;;31.36;32.48;95103.09;5007978;28;20049;-73
2022/07/24 08:32:57;;;;;;;20.63;8.93;;;;;;;31.33;32.84;95103.81;5025869;28;20041;-73
2022/07/24 08:35:24;;;;;;;14.85;8.43;;;;;;;30.86;32.54;95108.31;5027154;28;20038;-71
2022/07/24 08:37:58;;;;;;;19.63;9.82;;;;;;;30.90;33.42;95103.00;5022587;28;20136;-73
2022/07/24 08:40:32;;;;;;;17.88;8.63;;;;;;;31.02;32.21;95105.56;5020464;28;20038;-73
2022/07/24 08:43:00;;;;;;;19.00;8.23;;;;;;;30.97;32.55;95092.41;5020523;28;20041;-73
2022/07/24 08:45:27;;;;;;;19.00;8.35;;;;;;;31.13;31.39;95094.22;5023793;28;20042;-72
2022/07/24 08:47:55;;;;;;;17.52;9.55;;;;;;;31.30;31.86;95104.53;5006964;28;20111;-72
2022/07/24 08:50:22;;;;;;;16.20;8.05;;;;;;;31.15;31.99;95102.72;5028916;28;20040;-72
2022/07/24 08:52:50;;;;;;;11.90;7.47;;;;;;;31.20;31.45;95105.09;5010624;28;20042;-72
2022/07/24 08:55:17;;;;;;;19.08;8.82;;;;;;;31.35;30.94;95100.75;5032924;28;20045;-72
2022/07/24 08:57:44;;;;;;;11.80;7.95;;;;;;;31.49;31.35;95102.94;5036357;28;20587;-72
2022/07/24 09:00:11;;;;;;;20.00;8.30;;;;;;;31.86;31.24;95103.16;5016615;28;20075;-72
2022/07/24 09:02:39;;;;;;;13.38;7.90;;;;;;;32.28;30.38;95090.72;5029290;28;20509;-72
2022/07/24 09:05:07;;;;;;;17.27;8.43;;;;;;;32.75;30.22;95094.78;5031145;28;20057;-73
2022/07/24 09:07:34;;;;;;;14.88;8.07;;;;;;;33.15;29.47;95087.94;5013311;28;20037;-73
2022/07/24 09:10:04;;;;;;;19.15;7.63;;;;;;;33.23;29.28;95084.16;5029290;28;20144;-72
2022/07/24 09:12:45;;;;;;;19.83;8.15;;;;;;;33.46;29.99;95086.69;4995383;28;20045;-73
2022/07/24 09:15:20;;;;;;;23.42;8.07;;;;;;;33.18;29.17;95081.03;5018199;28;20053;-72
2022/07/24 09:17:58;;;;;;;18.05;7.35;;;;;;;32.76;30.52;95077.47;5035026;28;20537;-72
2022/07/24 09:20:27;;;;;;;12.40;7.82;;;;;;;32.95;29.11;95077.31;5035548;28;20565;-72
2022/07/24 09:22:58;;;;;;;20.90;8.75;;;;;;;33.06;28.71;95057.75;5031958;28;20071;-72
2022/07/24 09:25:33;;;;;;;15.88;8.02;;;;;;;32.87;26.74;95088.41;5031015;28;20045;-73
2022/07/24 09:28:03;;;;;;;17.40;7.68;;;;;;;32.58;27.13;95078.03;5036830;28;20127;-73
2022/07/24 09:30:33;;;;;;;17.20;8.27;;;;;;;32.83;26.87;95088.34;5034980;28;20505;-72
2022/07/24 09:33:05;;;;;;;17.35;7.90;;;;;;;33.03;27.83;95085.50;5010983;28;20529;-72
2022/07/24 09:35:38;;;;;;;17.33;7.60;;;;;;;33.30;28.37;95084.25;5004357;28;20060;-73
2022/07/24 09:38:07;;;;;;;14.77;7.82;;;;;;;33.23;27.96;95078.78;5009029;28;20054;-73
2022/07/24 09:40:39;;;;;;;21.30;9.82;;;;;;;33.23;26.78;95092.25;5023978;28;20052;-73
2022/07/24 09:43:18;;;;;;;13.23;7.00;;;;;;;33.26;27.37;95088.84;5025606;28;20723;-72
2022/07/24 09:46:01;;;;;;;21.27;8.20;;;;;;;33.02;27.40;95089.31;5026622;28;20395;-67
2022/07/24 09:48:37;;;;;;;13.63;7.82;;;;;;;33.33;27.15;95078.09;5025714;28;20052;-67
2022/07/24 09:51:15;;;;;;;17.23;7.45;;;;;;;33.77;26.98;95084.66;5022472;28;20053;-65
2022/07/24 09:53:44;;;;;;;15.57;8.80;;;;;;;34.15;27.15;95081.84;5026697;28;20045;-65
2022/07/24 09:56:16;;;;;;;13.57;7.78;;;;;;;34.09;26.83;95079.47;5024917;28;20042;-65
2022/07/24 09:58:46;;;;;;;13.10;7.10;;;;;;;34.44;26.72;95080.84;5027287;28;20081;-65
2022/07/24 10:01:15;;;;;;;14.38;7.90;;;;;;;34.57;26.17;95081.28;5022476;28;20049;-65
2022/07/24 10:03:44;;;;;;;14.88;8.00;;;;;;;34.60;25.84;95075.13;5021678;28;20434;-66
2022/07/24 10:06:13;;;;;;;11.35;6.85;;;;;;;34.65;25.35;95076.69;5023966;28;20050;-67
2022/07/24 10:08:42;;;;;;;16.77;8.10;;;;;;;34.73;26.08;95072.88;5020755;28;20061;-65
2022/07/24 10:11:11;;;;;;;15.93;7.55;;;;;;;34.34;24.82;95068.06;4992384;28;20135;-66
2022/07/24 10:13:39;;;;;;;13.02;8.18;;;;;;;34.31;25.33;95073.47;5024868;28;20126;-66
2022/07/24 10:16:12;;;;;;;19.73;8.55;;;;;;;34.45;25.01;95068.88;5028624;28;20041;-66
2022/07/24 10:18:52;;;;;;;23.17;8.35;;;;;;;34.65;25.06;95061.25;5035572;28;20049;-72
2022/07/24 10:21:22;;;;;;;20.25;7.88;;;;;;;35.00;24.29;95064.47;5031892;28;20111;-73
2022/07/24 10:24:07;;;;;;;12.13;8.30;;;;;;;35.05;23.79;95066.78;5011192;28;20408;-72
2022/07/24 10:26:49;;;;;;;12.10;7.70;;;;;;;35.32;24.47;95052.94;5034255;28;20152;-73
2022/07/24 10:29:20;;;;;;;18.67;7.35;;;;;;;35.59;24.08;95040.56;5034751;28;20095;-74
2022/07/24 10:31:55;;;;;;;17.63;7.75;;;;;;;36.26;22.99;95043.59;5013712;28;20489;-72
2022/07/24 10:34:47;;;;;;;14.93;7.97;;;;;;;36.97;23.72;95060.78;5017135;28;20076;-73
2022/07/24 10:37:24;;;;;;;14.95;7.85;;;;;;;37.62;22.56;95047.53;5037716;28;20049;-72
2022/07/24 10:39:57;;;;;;;12.88;8.38;;;;;;;37.95;20.96;95058.16;5016746;28;20045;-73
2022/07/24 10:42:24;;;;;;;18.48;7.07;;;;;;;37.55;20.92;95057.72;5026371;28;20056;-73
2022/07/24 10:45:17;;;;;;;11.40;7.50;;;;;;;37.60;21.19;95054.53;5018053;28;20300;-72
2022/07/24 10:47:45;;;;;;;13.50;7.97;;;;;;;38.16;21.10;95040.84;5006598;28;20184;-71
2022/07/24 10:50:14;;;;;;;29.17;9.27;;;;;;;38.82;20.61;95045.16;4999152;28;20457;-67
2022/07/24 10:52:41;;;;;;;18.33;8.82;;;;;;;39.37;20.56;95043.25;5028820;28;20068;-67
2022/07/24 10:55:20;;;;;;;25.13;7.22;;;;;;;39.50;19.95;95035.28;5007522;28;20046;-71
2022/07/24 10:58:13;;;;;;;20.15;7.60;;;;;;;40.21;18.90;95038.72;5011672;28;20038;-71
2022/07/24 11:00:44;;;;;;;24.73;7.78;;;;;;;40.61;19.39;95027.06;5022863;28;20048;-71
2022/07/24 11:03:21;;;;;;;14.35;7.18;;;;;;;40.74;18.95;95036.13;5030270;28;20049;-71
2022/07/24 11:06:14;;;;;;;18.40;8.60;;;;;;;41.13;18.39;95031.81;5032127;28;20048;-72
2022/07/24 11:08:49;;;;;;;23.02;6.93;;;;;;;40.75;18.04;95037.69;5028818;28;20113;-72
2022/07/24 11:11:19;;;;;;;16.02;6.95;;;;;;;40.48;17.74;95030.44;5028037;28;20048;-72
2022/07/24 11:13:54;;;;;;;29.27;8.30;;;;;;;40.39;18.52;95027.50;5030581;28;20037;-72
2022/07/24 11:16:28;;;;;;;18.45;7.60;;;;;;;40.98;17.79;95016.91;5031416;28;20037;-72
2022/07/24 11:18:55;;;;;;;22.35;8.10;;;;;;;41.55;17.81;95026.53;5014616;28;20052;-72
2022/07/24 11:21:40;;;;;;;17.85;7.95;;;;;;;41.58;16.53;95014.75;4995647;28;20432;-72
2022/07/24 11:24:19;;;;;;;17.25;8.32;;;;;;;41.90;17.04;95023.34;5014024;28;20145;-72
2022/07/24 11:27:06;;;;;;;12.50;7.13;;;;;;;42.37;16.25;95020.91;5028817;28;20422;-72
2022/07/24 11:29:38;;;;;;;14.65;6.78;;;;;;;41.93;16.16;95020.50;5010573;28;20051;-73
2022/07/24 11:32:13;;;;;;;19.58;7.45;;;;;;;41.32;16.83;95008.34;5028736;28;20040;-72